Tunis, Tunisia
Current Conditions -  °F | °C
As of 6:30 AM on Wednesday 26 Nov 2014 (Local Time) from DTTA Reporting Station
Scattered Clouds Scattered Clouds  
Wind Chill: 63°   Ceiling: Unl
Heat Index: 63°   Visibility: 6mi
Dew Point: 54°   Wind: 6mph
Humidity: 72%   Direction: 160°SSE
Pressure: 30"   Gusts: NA
Location:  36.84°N, 10.22°E
Report Text: DTTA 260530Z 16005KT 9999 SCT026 SCT033 17/12 Q1016
Loading
Personal Weather Stations






























Interactive Weather Map New forecast layout! Learn more

10-Day Weather Forecast

Advertisements
Track Severe Weather on mobile